SiteLock Weather in Ekeren and Port of Antwerp Multilingual Website with PHP & AJAX - Nearby METAR Reports

Nearby METAR Reports

 

KSJC - San Jose, California, USA
Distance from station: NO 14km
Ververst: 19/11/2019 00:53
Few Clouds
Few Clouds
 Wind van NW
Wind: NW 11 km/h
Temperatuur: 22°C
Dauwpunt: 7°C
Vochtigheid: 38%
Barometer: 1010.8 hPa
Clouds: Few Clouds
Visibility: 16 km
Cloud details: Few Clouds 457 m
Few Clouds 2438 m
2019/11/18 23:53 KSJC 182353Z 32006KT 10SM FEW015 FEW080 22/07 A2985 RMK AO2 SLP106 HZ FEW015 T02220072 10239 20167 58017 $
KNUQ - Moffett Nas/Mtn, California, USA
Distance from station: N 14km
Ververst: 19/11/2019 00:56

 
Barometer: 1010.8 hPa
2019/11/18 23:56 KNUQ 182356Z A2985 RMK AO2 SLP112 56020 PWINO $
 
KPAO - Palo Alto, California, USA
Distance from station: NNW 23km
Ververst: 19/11/2019 00:47
Few Clouds
Few Clouds
 Wind van NNO
Wind: NNO 7 km/h
Temperatuur: 19°C
Dauwpunt: 12°C
Vochtigheid: 64%
Barometer: 1010.8 hPa
Clouds: Few Clouds
Visibility: 16 km
Cloud details: Few Clouds 3658 m
2019/11/18 23:47 KPAO 182347Z 02004KT 10SM FEW120 19/12 A2985
KRHV - San Jose/Reid, California, USA
Distance from station: ONO 19km
Ververst: 18/11/2019 20:47
NOT Current
Helder
Helder
 Wind van calm
Wind: Kalm
Temperatuur: 19°C
Dauwpunt: 8°C
Vochtigheid: 49%
Barometer: 1013.9 hPa
Clouds: Helder
Visibility: 16 km
2019/11/18 19:47 KRHV 181947Z 00000KT 10SM SKC 19/08 A2994
 
KOAK - Oakland, California, USA
Distance from station: NNW 50km
Ververst: 19/11/2019 00:53
Haze, Few clouds
Haze, Few clouds
 Wind van W
Wind: W 9 km/h
Temperatuur: 20°C
Dauwpunt: 11°C
Vochtigheid: 56%
Barometer: 1010.8 hPa
Overzicht: Haze
Clouds: Few Clouds
Visibility: 10 km
Cloud details: Few Clouds 6096 m
2019/11/18 23:53 KOAK 182353Z 28005KT 6SM HZ FEW200 20/11 A2985 RMK AO2 SLP108 T02000111 10222 20161 56021
KSQL - San Carlos Airpo, California, USA
Distance from station: NW 34km
Ververst: 19/11/2019 00:47
Helder
Helder
 Wind van NNO
Wind: NNO 7 km/h
Temperatuur: 19°C
Dauwpunt: 14°C
Vochtigheid: 73%
Barometer: 1010.8 hPa
Clouds: Helder
Visibility: 16 km
2019/11/18 23:47 KSQL 182347Z 03004KT 10SM SKC 19/14 A2985
 
KSFO - San Francisco, California, USA
Distance from station: NW 49km
Ververst: 19/11/2019 00:56
Few Clouds
Few Clouds
 Wind van varies
Wind: varies 7 km/h
Temperatuur: 19°C
Dauwpunt: 13°C
Vochtigheid: 68%
Barometer: 1010.5 hPa
Clouds: Few Clouds
Visibility: 13 km
Cloud details: Few Clouds 6096 m
2019/11/18 23:56 KSFO 182356Z VRB04KT 8SM FEW200 19/13 A2984 RMK AO2 SLP105 T01890133 10194 20161 56022
KE16 - San Martin, California, USA
Distance from station: OZO 43km
Ververst: 14/11/2019 10:35
NOT Current
Zwaar bewolkt
Zwaar bewolkt
 Wind van ZO
Wind: ZO 11 km/h
Temperatuur: 12°C
Dauwpunt: 10°C
Vochtigheid: 88%
Barometer: 1017.6 hPa
Clouds: Zwaar bewolkt
Visibility: 16 km
Cloud details: Zwaar bewolkt 427 m
2019/11/14 09:35 KE16 140935Z AUTO 13006KT 10SM OVC014 12/10 A3005 RMK AO2
 
KWVI - Watsonville, California, USA
Distance from station: ZZO 44km
Ververst: 19/11/2019 00:53
Helder
Helder
 Wind van Z
Wind: Z 9 km/h
Temperatuur: 22°C
Dauwpunt: 11°C
Vochtigheid: 50%
Barometer: 1010.5 hPa
Clouds: Helder
Visibility: 16 km
2019/11/18 23:53 KWVI 182353Z AUTO 17005KT 10SM CLR 22/11 A2984 RMK AO2 SLP103 T02170106 10267 20189 56016
KHAF - Half Moon Bay, California, USA
Distance from station: WNW 50km
Ververst: 19/11/2019 01:35
Helder
Helder
 Wind van NNW
Wind: NNW 20 km/h
Temperatuur: 15°C
Dauwpunt: 12°C
Vochtigheid: 82%
Barometer: 1011.2 hPa
Clouds: Helder
Visibility: 14 km
2019/11/19 00:35 KHAF 190035Z AUTO 33011KT 9SM CLR 15/12 A2986 RMK AO2
 
KHWD - Hayward, California, USA
Distance from station: N 44km
Ververst: 19/11/2019 00:54
Haze, Helder
Haze, Helder
 Wind van W
Wind: W 6 km/h
Temperatuur: 22°C
Dauwpunt: 11°C
Vochtigheid: 50%
Barometer: 1010.5 hPa
Overzicht: Haze
Clouds: Helder
Visibility: 10 km
2019/11/18 23:54 KHWD 182354Z 26003KT 6SM HZ CLR 22/11 A2984 RMK AO2 SLP112 T02220106 10222 20172 56024
KLVK - Livermore, California, USA
Distance from station: NNO 51km
Ververst: 19/11/2019 00:53
Helder
Helder
 Wind van ONO
Wind: ONO 11 km/h
Temperatuur: 23°C
Dauwpunt: 8°C
Vochtigheid: 38%
Barometer: 1010.5 hPa
Clouds: Helder
Visibility: 13 km
2019/11/18 23:53 KLVK 182353Z 07006KT 8SM CLR 23/08 A2984 RMK AO2 SLP102 T02280083 10244 20156 56019